^^

Nearby METAR Reports

 

EGHH - Bournemouth Airp, United Kingdom
Distance from station: S 10mi, 17km
Updated: 25/06/2019 18:50
Few Clouds
Few Clouds
 Wind from S
Wind: S 5 mph , 7 km/h
Temperature: 23°C
Dew Point: 16°C
Humidity: 65%
Barometer: 1020 hPa
Clouds: Few Clouds
Visibility: 6 miles , 10 km
Cloud details: Few Clouds 1463 m
2019/06/25 17:50 EGHH 251750Z 17004KT 110V200 9999 FEW048 23/16 Q1020
EGDM - Boscombe Down, United Kingdom
Distance from station: N 16mi, 26km
Updated: 25/06/2019 18:50
Mostly cloudy
Mostly cloudy
 Wind from NE
Wind: NE 8 mph , 13 km/h
Temperature: 21°C
Dew Point: 18°C
Humidity: 83%
Barometer: 1020 hPa
Clouds: Mostly cloudy
Visibility: 6 miles , 10 km
Cloud details: Few Clouds 1036 m
Mostly cloudy 1829 m
2019/06/25 17:50 EGDM 251750Z AUTO 05007KT 9999 FEW034/// BKN060/// 21/18 Q1020
 
EGVP - Middle Wallop, United Kingdom
Distance from station: NE 17mi, 27km
Updated: 25/06/2019 18:50
Mostly cloudy
Mostly cloudy
 Wind from NE
Wind: NE 9 mph , 15 km/h
Temperature: 22°C
Dew Point: 18°C
Humidity: 78%
Barometer: 1020 hPa
Clouds: Mostly cloudy
Visibility: 6 miles , 10 km
Cloud details: Few Clouds 518 m
Partly cloudy 1372 m
Mostly cloudy 7620 m
2019/06/25 17:50 EGVP 251750Z 05008KT 9999 FEW017 SCT045 BKN250 22/18 Q1020 RMK BLU
EGHI - Southampton Wx C, United Kingdom
Distance from station: E 19mi, 31km
Updated: 25/06/2019 19:20
Partly cloudy
Partly cloudy
 Wind from ENE
Wind: ENE 1 mph , 2 km/h
Temperature: 22°C
Dew Point: 16°C
Humidity: 69%
Barometer: 1020 hPa
Clouds: Partly cloudy
Visibility: 6 miles , 10 km
Cloud details: Few Clouds 762 m
Partly cloudy 1067 m
2019/06/25 18:20 EGHI 251820Z 06001KT 9999 FEW025 SCT035 22/16 Q1020
 
EGDY - Yeovilton (navy), United Kingdom
Distance from station: W 36mi, 58km
Updated: 25/06/2019 19:20
Mostly cloudy
Mostly cloudy
 Wind from NNW
Wind: NNW 6 mph , 9 km/h
Temperature: 20°C
Dew Point: 17°C
Humidity: 83%
Barometer: 1020 hPa
Clouds: Mostly cloudy
Visibility: 6 miles , 10 km
Cloud details: Few Clouds 427 m
Partly cloudy 610 m
Mostly cloudy 914 m
2019/06/25 18:20 EGDY 251820Z 34005KT 9999 FEW014 SCT020 BKN030 20/17 Q1020 NOSIG RMK WHT WHT
EGUO - Colerne Raf, United Kingdom
Distance from station: NNW 41mi, 66km
Updated: 14/02/2019 22:50
NOT Current
Clear
Clear
 Wind from ENE
Wind: ENE 1 mph , 2 km/h
Temperature: 1°C
Dew Point: 0°C
Humidity: 93%
Barometer: 1029 hPa
Summary: Clear
Visibility: greater than 7 miles , 10 km
2019/02/14 22:50 EGUO 142250Z 06001KT CAVOK 01/00 Q1029 BLU NOSIG
 
EGVO - Odiham Raf, United Kingdom
Distance from station: ENE 42mi, 68km
Updated: 25/06/2019 19:20
Mostly cloudy
Mostly cloudy
 Wind from N
Wind: N 8 mph , 13 km/h
Temperature: 21°C
Dew Point: 18°C
Humidity: 83%
Barometer: 1021 hPa
Clouds: Mostly cloudy
Visibility: 6 miles , 10 km
Cloud details: Few Clouds 366 m
Mostly cloudy 1524 m
2019/06/25 18:20 EGVO 251820Z 01007KT 9999 FEW012 BKN050 21/18 Q1021 TEMPO SCT012 RMK BLU TEMPO GRN
EGGD - Bristol/Lulsgate, United Kingdom
Distance from station: NW 50mi, 81km
Updated: 25/06/2019 19:20
Mostly cloudy
Mostly cloudy
 Wind from NNE
Wind: NNE 8 mph , 13 km/h
Temperature: 17°C
Dew Point: 16°C
Humidity: 94%
Barometer: 1021 hPa
Clouds: Mostly cloudy
Visibility: 5 miles , 8 km
Cloud details: Mostly cloudy 183 m
2019/06/25 18:20 EGGD 251820Z 03007KT 360V070 8000 BKN006 17/16 Q1021